TimeEST,TemperatureF,Dew PointF,Humidity,Sea Level PressureIn,VisibilityMPH,Wind Direction,Wind SpeedMPH,Gust SpeedMPH,PrecipitationIn,Events,Conditions,WindDirDegrees,DateUTC
12:53 AM,21.0,8.1,57,29.99,10.0,Calm,Calm,-,N/A,,Clear,0,2013-01-02 05:53:00
1:53 AM,19.9,8.1,60,30.01,10.0,Calm,Calm,-,N/A,,Clear,0,2013-01-02 06:53:00
2:53 AM,19.0,7.0,59,30.01,10.0,WNW,4.6,-,N/A,,Clear,300,2013-01-02 07:53:00
3:53 AM,17.1,8.1,68,30.01,10.0,Calm,Calm,-,N/A,,Clear,0,2013-01-02 08:53:00
4:53 AM,19.0,7.0,59,30.01,10.0,WNW,5.8,-,N/A,,Clear,300,2013-01-02 09:53:00
5:53 AM,15.1,8.1,74,30.01,10.0,Calm,Calm,-,N/A,,Clear,0,2013-01-02 10:53:00
6:53 AM,12.9,6.1,74,30.01,10.0,Calm,Calm,-,N/A,,Clear,0,2013-01-02 11:53:00
7:53 AM,12.0,7.0,80,30.01,10.0,WSW,4.6,-,N/A,,Clear,250,2013-01-02 12:53:00
8:53 AM,12.9,8.1,81,30.03,6.0,SW,3.5,-,N/A,,Haze,220,2013-01-02 13:53:00
10:53 AM,21.0,9.0,60,30.03,10.0,SSW,6.9,-,N/A,,Clear,210,2013-01-02 15:53:00
11:53 AM,25.0,10.0,53,30.01,10.0,West,11.5,18.4,N/A,,Clear,260,2013-01-02 16:53:00
12:53 PM,26.1,10.9,53,29.99,10.0,Variable,4.6,-,N/A,,Clear,0,2013-01-02 17:53:00
1:53 PM,27.0,12.0,53,30.01,10.0,WNW,10.4,-,N/A,,Clear,290,2013-01-02 18:53:00
2:53 PM,28.0,12.9,53,30.04,10.0,WNW,5.8,-,N/A,,Mostly Cloudy,290,2013-01-02 19:53:00
3:53 PM,28.0,12.9,53,30.04,10.0,Variable,4.6,-,N/A,,Overcast,0,2013-01-02 20:53:00
4:53 PM,27.0,14.0,58,30.06,10.0,Calm,Calm,-,N/A,,Overcast,0,2013-01-02 21:53:00
5:53 PM,27.0,14.0,58,30.09,10.0,Calm,Calm,-,N/A,,Partly Cloudy,0,2013-01-02 22:53:00
6:53 PM,25.0,15.1,66,30.11,10.0,Calm,Calm,-,N/A,,Mostly Cloudy,0,2013-01-02 23:53:00
7:53 PM,21.9,15.1,75,30.11,10.0,Calm,Calm,-,N/A,,Mostly Cloudy,0,2013-01-03 00:53:00
8:53 PM,21.9,16.0,78,30.12,10.0,Calm,Calm,-,N/A,,Partly Cloudy,0,2013-01-03 01:53:00
9:53 PM,21.9,16.0,78,30.14,10.0,Calm,Calm,-,N/A,,Partly Cloudy,0,2013-01-03 02:53:00
11:53 PM,19.0,15.1,85,30.17,10.0,Calm,Calm,-,N/A,,Clear,0,2013-01-03 04:53:00